AirNav   Air Wisconsin Up To $57,000 Bonus
 
 1325 users online  

33J Geneva Municipal Airport
Geneva, Alabama, USA

GOING TO GENEVA?


FAA INFORMATION EFFECTIVE 19 MAY 2022

Location

FAA Identifier: 33J
Lat/Long: 31-03-09.4500N 085-52-08.2000W
31-03.157500N 085-52.136667W
31.0526250,-85.8689444
(estimated)
Elevation: 100.3 ft. / 31 m (estimated)
Variation: 04W (2015)
From city: 2 miles N of GENEVA, AL
Time zone: UTC -5 (UTC -6 during Standard Time)
Zip code: 36340

Airport Operations

Airport use: Open to the public
Activation date: 12/1957
Control tower: no
ARTCC: JACKSONVILLE CENTER
FSS: ANNISTON FLIGHT SERVICE STATION
NOTAMs facility: ANB (NOTAM-D service available)
Attendance: UNATNDD
Wind indicator: lighted
Segmented circle: no
Lights: ACTVT PAPI RWY 11 & 29; MIRL RWY 11/29 - CTAF.
Beacon: white-green (lighted land airport)
Operates sunset to sunrise.

Airport Communications

CTAF/UNICOM: 122.8
CAIRNS APPROACH: 133.75
CAIRNS DEPARTURE: 133.75
WX AWOS-3PT at EDN (15 nm N): 118.9 (334-347-3524)
WX AWOS-3PT at BCR (19 nm SE): 119.825 (850-547-1431)
  • APCH/DEP SVC PRVDD BY JACKSONVILLE ARTCC ON FREQS 134.3/322.55 (DOTHAN RCAG) WHEN CAIRNS APCH/DEP CLSD.

Nearby radio navigation aids

VOR radial/distance  VOR name  Freq  Var
EDNr176/(14.7)ENTERPRISE VOR116.6003W
OZRr212/14.9CAIRNS VOR/DME111.2003W
HEYr213/(22.3)HANCHEY VOR110.6003W
RRSr236/26.4WIREGRASS VORTAC111.6002E

 
NDB name  Hdg/Dist  Freq  Var  ID
RUCKR198/10.721203WOZ --- --..
BOLL WEEVIL164/18.235203WBVG -... ...- --.
LOWE202/19.626903WLOR .-.. --- .-.
HANCHEY213/22.322103WHYE .... -.-- .
JUDD121/30.826402WJUY .--- ..- -.--
SOYYA290/34.932902WSMY ... -- -.--

Airport Services

Fuel available: 100LL
Parking: tiedowns
Airframe service: NONE
Powerplant service: NONE
Bottled oxygen: NONE
Bulk oxygen: NONE

Runway Information

Runway 11/29

Dimensions: 3998 x 100 ft. / 1219 x 30 m
Surface: asphalt, in good condition
Weight bearing capacity: 
Single wheel: 16.0
Runway edge lights: medium intensity
RUNWAY 11  RUNWAY 29
Latitude: 31-03.255833N31-03.059167N
Longitude: 085-52.502167W085-51.771000W
Elevation: 94.4 ft.95.8 ft.
Traffic pattern: leftleft
Runway heading: 111 magnetic, 107 true291 magnetic, 287 true
Markings: nonprecision, in good conditionnonprecision, in good condition
Visual slope indicator: 4-light PAPI on left (3.50 degrees glide path)4-light PAPI on left (3.50 degrees glide path)
Touchdown point: yes, no lightsyes, no lights
Obstructions: 42 ft. trees, 502 ft. from runway, 206 ft. left of centerline, 7:1 slope to clear14 ft. tree, 219 ft. from runway, 119 ft. left of centerline, 1:1 slope to clear

Airport Ownership and Management from official FAA records

Ownership: Publicly-owned
Owner: TOWN OF GENEVA
PO BOX 37
GENEVA, AL 36340
Phone 334-684-2485
Manager: CITY OF GENEVA
304 BUCK WILLIAMS ROAD
GENEVA, AL 36340
Phone 334-684-2485

Airport Operational Statistics

Aircraft based on the field: 22
Single engine airplanes: 21
Ultralights: 1
    
Aircraft operations: avg 25/day *
90% transient general aviation
7% military
3% local general aviation
* for 12-month period ending 17 January 2020

Additional Remarks

FOR CD CTC CAIRNS APCH AT 334-255-8402, WHEN APCH CLSD CTC JACKSONVILLE ARTCC AT 904-845-1592.

Instrument Procedures

NOTE: All procedures below are presented as PDF files. If you need a reader for these files, you should download the free Adobe Reader.

NOT FOR NAVIGATION. Please procure official charts for flight.
FAA instrument procedures published for use from 19 May 2022 at 0901Z to 16 June 2022 at 0900Z.

 
IAPs - Instrument Approach Procedures
RNAV (GPS) RWY 11   download (197KB)
RNAV (GPS) RWY 29   download (197KB)
NOTE: Special Take-Off Minimums/Departure Procedures apply   download (394KB)

Other nearby airports with instrument procedures:

KEDN - Enterprise Municipal Airport (15 nm N)
KOZR - Cairns Army Airfield (Fort Rucker) (16 nm NE)
KBCR - Tri-County Airport (19 nm SE)
KLOR - Lowe Army Heliport (Fort Rucker) (19 nm N)
KHEY - Hanchey Army Heliport (Fort Rucker) (21 nm NE)
 
Loc | Ops | Rwys | IFR | FBO | Links
Com | Nav | Svcs | Stats | Notes
Area around 33J (Geneva Municipal Airport)
 
Road maps at: MapQuest Bing Google
 
Aerial photo
WARNING: Photo may not be current or correct
Aerial photo of 33J (Geneva Municipal Airport)
Do you have a better or more recent aerial photo of Geneva Municipal Airport that you would like to share? If so, please send us your photo.

 
Sectional chart

 
Airport distance calculator
Flying to Geneva Municipal Airport? Find the distance to fly.

From to 33J

Sunrise and sunset
Times for 19-May-2022
 Local
(UTC-5)
 Zulu
(UTC)
Morning civil twilight05:2010:20
Sunrise05:4710:47
Sunset19:3300:33
Evening civil twilight20:0001:00

Current date and time
Zulu (UTC)  19-May-2022 22:31:23
Local (UTC-5)  19-May-2022 17:31:23
 
METAR
KEDN 
15nm N 
192215Z AUTO 21008KT 10SM SCT060 32/20 A2987 RMK AO2 T03160196
KOZR 
16nm NE 
192156Z AUTO 19006KT 10SM CLR 33/17 A2986 RMK AO2 SLP111 T03320165 $
KBCR 
19nm SE 
192158Z AUTO 19010KT 10SM CLR 31/17 A2989 RMK AO2 SLP080 T03110172 $
KLOR 
19nm N 
192156Z AUTO 17006KT 10SM SCT060 33/18 A2989 RMK AO2 SLPNO T03320181
KSXS 
19nm N 
192158Z AUTO 20007KT M M SCT060 33/18 A2985 RMK AO2 SLP105 T03280183 PWINO $
KHEY 
21nm NE 
192158Z AUTO 19006KT 10SM FEW060 33/19 A2983 RMK AO2 SLP100 T03260187
K0J4 
23nm W 
192158Z AUTO 19012G21KT 10SM BKN055 31/19 A2989 RMK AO2 SLP118 T03060189
K54J 
24nm SW 
192215Z AUTO 20009G15KT 10SM CLR 28/19 A2991 RMK AO2 T02820192
KDHN 
27nm NE 
192153Z 17008KT 10SM FEW060 34/17 A2990 RMK AO2 SLP117 T03390167
TAF
KOZR 
16nm NE 
191600Z 1916/2022 25008KT 9999 SCT030 QNH2995INS BECMG 1918/1919 23008KT 9999 SCT040 QNH2985INS BECMG 1923/1924 22010G15KT 9999 SCT040 QNH2985INS BECMG 2005/2006 22006KT 9999 SCT020 QNH2992INS TEMPO 2006/2008 3200 BR SCT008 BECMG 2007/2008 VRB04KT 3200 BR SCT004 QNH2989INS TEMPO 2008/2013 0800 FG BKN004 BECMG 2013/2014 19008KT 9999 NSW SCT020 QNH2992INS BECMG 2015/2016 19010G15KT 9999 SCT040 QNH2995INS BECMG 2018/2019 19010G15KT 9999 VCTS BKN040 QNH2994INS TX33/1921Z TN21/2011Z
NOTAMs
Click for the latest NOTAMs
NOTAMs are issued by the DoD/FAA and will open in a separate window not controlled by AirNav.

 

 
 

FBO, Fuel Providers, and Aircraft Ground Support

  
 Business Name 
 
 Contact 
 
 Services / Description 
 
Fuel Prices
 
Comments
  
Geneva Municipal Airport 334-684-8524
[web site]
Airport management, Aviation fuel

More info about Geneva Municipal Airport
Avfuel
100LL
SS $5.15 
 Updated 17-Jan-2022
 
   write
SS=Self service
Update Fuel Prices
 

Would you like to see your business listed on this page?

 If your business provides an interesting product or service to pilots, flight crews, aircraft, or users of the Geneva Municipal Airport, you should consider listing it here.  To start the listing process, click on the button below
 
Add a business
 

Other Pages about Geneva Municipal Airport

Update a link
 
Copyright © AirNav, LLC. All rights reserved. Privacy Policy  Contact